sensor_id;sensor_type;location;lat;lon;timestamp;P1;durP1;ratioP1;P2;durP2;ratioP2
23388;SDS011;11867;51.198;11.966;2023-02-21T00:00:32;6.70;;;4.30;;
23388;SDS011;11867;51.198;11.966;2023-02-21T00:01:54;4.50;;;3.70;;
23388;SDS011;11867;51.198;11.966;2023-02-21T00:03:15;4.13;;;3.38;;
23388;SDS011;11867;51.198;11.966;2023-02-21T00:04:35;5.03;;;3.85;;
23388;SDS011;11867;51.198;11.966;2023-02-21T00:05:55;5.55;;;3.22;;
23388;SDS011;11867;51.198;11.966;2023-02-21T00:07:15;4.57;;;3.28;;
23388;SDS011;11867;51.198;11.966;2023-02-21T00:08:35;5.95;;;3.42;;
23388;SDS011;11867;51.198;11.966;2023-02-21T00:09:55;6.22;;;4.03;;
23388;SDS011;11867;51.198;11.966;2023-02-21T00:11:15;4.90;;;3.60;;
23388;SDS011;11867;51.198;11.966;2023-02-21T00:12:35;4.67;;;3.87;;
23388;SDS011;11867;51.198;11.966;2023-02-21T00:13:55;5.00;;;3.63;;
23388;SDS011;11867;51.198;11.966;2023-02-21T00:15:16;5.32;;;3.83;;
23388;SDS011;11867;51.198;11.966;2023-02-21T00:17:58;4.00;;;3.40;;
23388;SDS011;11867;51.198;11.966;2023-02-21T00:19:18;4.40;;;3.53;;
23388;SDS011;11867;51.198;11.966;2023-02-21T00:20:38;4.65;;;3.78;;
23388;SDS011;11867;51.198;11.966;2023-02-21T00:21:58;5.60;;;3.60;;
23388;SDS011;11867;51.198;11.966;2023-02-21T00:23:18;4.45;;;3.35;;
23388;SDS011;11867;51.198;11.966;2023-02-21T00:24:38;5.68;;;3.08;;
23388;SDS011;11867;51.198;11.966;2023-02-21T00:25:58;5.90;;;3.40;;
23388;SDS011;11867;51.198;11.966;2023-02-21T00:27:19;4.50;;;3.38;;
23388;SDS011;11867;51.198;11.966;2023-02-21T00:28:39;6.60;;;3.58;;
23388;SDS011;11867;51.198;11.966;2023-02-21T00:29:59;4.03;;;2.75;;
23388;SDS011;11867;51.198;11.966;2023-02-21T00:31:19;5.90;;;3.47;;
23388;SDS011;11867;51.198;11.966;2023-02-21T00:32:39;5.10;;;3.08;;
23388;SDS011;11867;51.198;11.966;2023-02-21T00:34:01;4.50;;;2.53;;
23388;SDS011;11867;51.198;11.966;2023-02-21T00:35:21;5.63;;;3.20;;
23388;SDS011;11867;51.198;11.966;2023-02-21T00:36:41;4.30;;;3.28;;
23388;SDS011;11867;51.198;11.966;2023-02-21T00:38:01;3.73;;;3.03;;
23388;SDS011;11867;51.198;11.966;2023-02-21T00:39:24;5.68;;;3.17;;
23388;SDS011;11867;51.198;11.966;2023-02-21T00:40:43;4.90;;;3.00;;
23388;SDS011;11867;51.198;11.966;2023-02-21T00:42:04;4.60;;;3.53;;
23388;SDS011;11867;51.198;11.966;2023-02-21T00:43:27;5.15;;;3.10;;
23388;SDS011;11867;51.198;11.966;2023-02-21T00:44:47;3.85;;;3.20;;
23388;SDS011;11867;51.198;11.966;2023-02-21T00:46:08;4.25;;;3.00;;
23388;SDS011;11867;51.198;11.966;2023-02-21T00:47:28;4.80;;;3.35;;
23388;SDS011;11867;51.198;11.966;2023-02-21T00:48:48;5.28;;;3.35;;
23388;SDS011;11867;51.198;11.966;2023-02-21T00:50:09;5.10;;;3.28;;
23388;SDS011;11867;51.198;11.966;2023-02-21T00:51:30;4.55;;;3.20;;
23388;SDS011;11867;51.198;11.966;2023-02-21T00:54:11;4.63;;;3.38;;
23388;SDS011;11867;51.198;11.966;2023-02-21T00:55:31;3.88;;;3.47;;
23388;SDS011;11867;51.198;11.966;2023-02-21T00:56:51;4.65;;;3.40;;
23388;SDS011;11867;51.198;11.966;2023-02-21T00:58:11;3.47;;;2.90;;
23388;SDS011;11867;51.198;11.966;2023-02-21T00:59:31;4.75;;;3.20;;
23388;SDS011;11867;51.198;11.966;2023-02-21T01:00:51;3.83;;;3.35;;
23388;SDS011;11867;51.198;11.966;2023-02-21T01:02:11;4.65;;;3.33;;
23388;SDS011;11867;51.198;11.966;2023-02-21T01:03:31;3.63;;;2.88;;
23388;SDS011;11867;51.198;11.966;2023-02-21T01:04:51;3.60;;;2.95;;
23388;SDS011;11867;51.198;11.966;2023-02-21T01:06:13;6.10;;;3.00;;
23388;SDS011;11867;51.198;11.966;2023-02-21T01:07:33;3.85;;;2.80;;
23388;SDS011;11867;51.198;11.966;2023-02-21T01:08:53;2.95;;;2.35;;
23388;SDS011;11867;51.198;11.966;2023-02-21T01:10:14;6.00;;;3.30;;
23388;SDS011;11867;51.198;11.966;2023-02-21T01:11:34;3.38;;;3.00;;
23388;SDS011;11867;51.198;11.966;2023-02-21T01:12:54;3.40;;;3.10;;
23388;SDS011;11867;51.198;11.966;2023-02-21T01:14:14;3.95;;;3.08;;
23388;SDS011;11867;51.198;11.966;2023-02-21T01:15:34;4.65;;;3.30;;
23388;SDS011;11867;51.198;11.966;2023-02-21T01:16:54;4.78;;;3.30;;
23388;SDS011;11867;51.198;11.966;2023-02-21T01:18:14;7.60;;;3.63;;
23388;SDS011;11867;51.198;11.966;2023-02-21T01:19:34;4.70;;;3.45;;
23388;SDS011;11867;51.198;11.966;2023-02-21T01:20:54;4.13;;;3.33;;
23388;SDS011;11867;51.198;11.966;2023-02-21T01:22:16;3.10;;;2.63;;
23388;SDS011;11867;51.198;11.966;2023-02-21T01:23:37;6.90;;;3.88;;
23388;SDS011;11867;51.198;11.966;2023-02-21T01:24:57;4.30;;;3.00;;
23388;SDS011;11867;51.198;11.966;2023-02-21T01:26:17;5.20;;;3.70;;
23388;SDS011;11867;51.198;11.966;2023-02-21T01:27:37;5.00;;;3.50;;
23388;SDS011;11867;51.198;11.966;2023-02-21T01:28:57;5.75;;;3.60;;
23388;SDS011;11867;51.198;11.966;2023-02-21T01:30:17;6.28;;;4.38;;
23388;SDS011;11867;51.198;11.966;2023-02-21T01:31:37;3.90;;;3.47;;
23388;SDS011;11867;51.198;11.966;2023-02-21T01:32:58;4.30;;;3.35;;
23388;SDS011;11867;51.198;11.966;2023-02-21T01:34:18;4.77;;;3.60;;
23388;SDS011;11867;51.198;11.966;2023-02-21T01:35:38;4.75;;;3.72;;
23388;SDS011;11867;51.198;11.966;2023-02-21T01:36:58;5.57;;;4.07;;
23388;SDS011;11867;51.198;11.966;2023-02-21T01:38:19;6.13;;;4.25;;
23388;SDS011;11867;51.198;11.966;2023-02-21T01:39:40;6.20;;;3.80;;
23388;SDS011;11867;51.198;11.966;2023-02-21T01:41:00;5.05;;;4.45;;
23388;SDS011;11867;51.198;11.966;2023-02-21T01:43:54;7.35;;;4.20;;
23388;SDS011;11867;51.198;11.966;2023-02-21T01:47:06;11.50;;;5.57;;
23388;SDS011;11867;51.198;11.966;2023-02-21T01:48:29;6.18;;;4.68;;
23388;SDS011;11867;51.198;11.966;2023-02-21T01:49:53;7.57;;;4.80;;
23388;SDS011;11867;51.198;11.966;2023-02-21T01:51:15;9.50;;;4.93;;
23388;SDS011;11867;51.198;11.966;2023-02-21T01:52:37;7.30;;;4.80;;
23388;SDS011;11867;51.198;11.966;2023-02-21T01:53:58;7.97;;;5.38;;
23388;SDS011;11867;51.198;11.966;2023-02-21T01:55:19;7.82;;;5.15;;
23388;SDS011;11867;51.198;11.966;2023-02-21T01:56:39;6.93;;;5.25;;
23388;SDS011;11867;51.198;11.966;2023-02-21T01:58:00;8.07;;;5.57;;
23388;SDS011;11867;51.198;11.966;2023-02-21T01:59:21;9.20;;;5.45;;
23388;SDS011;11867;51.198;11.966;2023-02-21T02:00:42;7.03;;;5.10;;
23388;SDS011;11867;51.198;11.966;2023-02-21T02:02:03;9.20;;;5.40;;
23388;SDS011;11867;51.198;11.966;2023-02-21T02:03:28;7.57;;;5.93;;
23388;SDS011;11867;51.198;11.966;2023-02-21T02:04:49;7.32;;;4.25;;
23388;SDS011;11867;51.198;11.966;2023-02-21T02:06:12;9.80;;;5.55;;
23388;SDS011;11867;51.198;11.966;2023-02-21T02:07:35;8.30;;;6.00;;
23388;SDS011;11867;51.198;11.966;2023-02-21T02:10:17;7.63;;;5.20;;
23388;SDS011;11867;51.198;11.966;2023-02-21T02:11:42;7.63;;;5.50;;
23388;SDS011;11867;51.198;11.966;2023-02-21T02:13:18;5.80;;;4.80;;
23388;SDS011;11867;51.198;11.966;2023-02-21T02:14:40;9.25;;;5.65;;
23388;SDS011;11867;51.198;11.966;2023-02-21T02:16:05;8.27;;;5.65;;
23388;SDS011;11867;51.198;11.966;2023-02-21T02:17:14;7.75;;;5.82;;
23388;SDS011;11867;51.198;11.966;2023-02-21T02:18:26;8.18;;;4.93;;
23388;SDS011;11867;51.198;11.966;2023-02-21T02:19:54;9.13;;;6.10;;
23388;SDS011;11867;51.198;11.966;2023-02-21T02:21:19;10.15;;;6.45;;
23388;SDS011;11867;51.198;11.966;2023-02-21T02:23:10;10.57;;;6.28;;
23388;SDS011;11867;51.198;11.966;2023-02-21T02:26:10;9.43;;;6.43;;
23388;SDS011;11867;51.198;11.966;2023-02-21T02:27:40;8.93;;;6.50;;
23388;SDS011;11867;51.198;11.966;2023-02-21T02:28:53;10.48;;;6.90;;
23388;SDS011;11867;51.198;11.966;2023-02-21T02:30:30;10.88;;;7.10;;
23388;SDS011;11867;51.198;11.966;2023-02-21T02:31:50;8.23;;;6.70;;
23388;SDS011;11867;51.198;11.966;2023-02-21T02:33:28;11.07;;;7.13;;
23388;SDS011;11867;51.198;11.966;2023-02-21T02:34:49;10.80;;;7.30;;
23388;SDS011;11867;51.198;11.966;2023-02-21T02:35:56;9.23;;;6.82;;
23388;SDS011;11867;51.198;11.966;2023-02-21T02:37:07;10.65;;;7.20;;
23388;SDS011;11867;51.198;11.966;2023-02-21T02:38:15;9.80;;;6.35;;
23388;SDS011;11867;51.198;11.966;2023-02-21T02:39:27;11.75;;;7.50;;
23388;SDS011;11867;51.198;11.966;2023-02-21T02:40:39;12.80;;;7.00;;
23388;SDS011;11867;51.198;11.966;2023-02-21T02:41:52;10.18;;;7.32;;
23388;SDS011;11867;51.198;11.966;2023-02-21T02:43:02;8.15;;;5.97;;
23388;SDS011;11867;51.198;11.966;2023-02-21T02:44:13;10.32;;;7.32;;
23388;SDS011;11867;51.198;11.966;2023-02-21T02:45:21;10.23;;;7.10;;
23388;SDS011;11867;51.198;11.966;2023-02-21T02:46:27;10.25;;;7.32;;
23388;SDS011;11867;51.198;11.966;2023-02-21T02:47:33;8.55;;;6.60;;
23388;SDS011;11867;51.198;11.966;2023-02-21T02:48:39;10.13;;;6.90;;
23388;SDS011;11867;51.198;11.966;2023-02-21T02:49:44;12.40;;;7.97;;
23388;SDS011;11867;51.198;11.966;2023-02-21T02:50:49;10.15;;;7.20;;
23388;SDS011;11867;51.198;11.966;2023-02-21T02:51:52;10.75;;;7.07;;
23388;SDS011;11867;51.198;11.966;2023-02-21T02:52:55;9.68;;;6.82;;
23388;SDS011;11867;51.198;11.966;2023-02-21T02:54:02;10.52;;;6.80;;
23388;SDS011;11867;51.198;11.966;2023-02-21T02:55:19;12.40;;;7.95;;
23388;SDS011;11867;51.198;11.966;2023-02-21T02:56:27;11.43;;;7.15;;
23388;SDS011;11867;51.198;11.966;2023-02-21T02:57:30;9.57;;;7.30;;
23388;SDS011;11867;51.198;11.966;2023-02-21T02:58:39;12.70;;;8.38;;
23388;SDS011;11867;51.198;11.966;2023-02-21T02:59:44;10.38;;;6.70;;
23388;SDS011;11867;51.198;11.966;2023-02-21T03:00:50;10.63;;;7.53;;
23388;SDS011;11867;51.198;11.966;2023-02-21T03:02:28;9.82;;;7.35;;
23388;SDS011;11867;51.198;11.966;2023-02-21T03:03:53;9.63;;;6.78;;
23388;SDS011;11867;51.198;11.966;2023-02-21T03:05:13;11.05;;;7.20;;
23388;SDS011;11867;51.198;11.966;2023-02-21T03:07:46;10.13;;;7.10;;
23388;SDS011;11867;51.198;11.966;2023-02-21T03:09:01;10.90;;;8.00;;
23388;SDS011;11867;51.198;11.966;2023-02-21T03:10:11;12.05;;;8.15;;
23388;SDS011;11867;51.198;11.966;2023-02-21T03:11:19;9.20;;;7.13;;
23388;SDS011;11867;51.198;11.966;2023-02-21T03:12:25;10.63;;;7.65;;
23388;SDS011;11867;51.198;11.966;2023-02-21T03:13:36;11.20;;;7.32;;
23388;SDS011;11867;51.198;11.966;2023-02-21T03:14:54;10.95;;;7.20;;
23388;SDS011;11867;51.198;11.966;2023-02-21T03:16:03;11.52;;;7.35;;
23388;SDS011;11867;51.198;11.966;2023-02-21T03:17:10;12.30;;;8.15;;
23388;SDS011;11867;51.198;11.966;2023-02-21T03:18:21;12.18;;;8.18;;
23388;SDS011;11867;51.198;11.966;2023-02-21T03:19:28;12.52;;;8.20;;
23388;SDS011;11867;51.198;11.966;2023-02-21T03:20:35;11.90;;;7.47;;
23388;SDS011;11867;51.198;11.966;2023-02-21T03:21:41;11.60;;;7.80;;
23388;SDS011;11867;51.198;11.966;2023-02-21T03:22:46;11.45;;;8.30;;
23388;SDS011;11867;51.198;11.966;2023-02-21T03:23:50;11.50;;;7.88;;
23388;SDS011;11867;51.198;11.966;2023-02-21T03:24:55;13.82;;;9.07;;
23388;SDS011;11867;51.198;11.966;2023-02-21T03:26:02;10.95;;;8.27;;
23388;SDS011;11867;51.198;11.966;2023-02-21T03:27:07;15.38;;;9.32;;
23388;SDS011;11867;51.198;11.966;2023-02-21T03:28:09;11.68;;;8.70;;
23388;SDS011;11867;51.198;11.966;2023-02-21T03:29:13;12.80;;;9.10;;
23388;SDS011;11867;51.198;11.966;2023-02-21T03:30:16;11.25;;;7.85;;
23388;SDS011;11867;51.198;11.966;2023-02-21T03:31:20;12.77;;;8.80;;
23388;SDS011;11867;51.198;11.966;2023-02-21T03:32:27;14.55;;;8.75;;
23388;SDS011;11867;51.198;11.966;2023-02-21T03:33:32;13.98;;;9.18;;
23388;SDS011;11867;51.198;11.966;2023-02-21T03:34:34;12.55;;;8.50;;
23388;SDS011;11867;51.198;11.966;2023-02-21T03:35:36;14.35;;;9.07;;
23388;SDS011;11867;51.198;11.966;2023-02-21T03:36:40;11.55;;;8.90;;
23388;SDS011;11867;51.198;11.966;2023-02-21T03:37:43;14.00;;;9.27;;
23388;SDS011;11867;51.198;11.966;2023-02-21T03:38:46;13.70;;;9.68;;
23388;SDS011;11867;51.198;11.966;2023-02-21T03:39:48;15.55;;;9.05;;
23388;SDS011;11867;51.198;11.966;2023-02-21T03:40:50;13.35;;;9.13;;
23388;SDS011;11867;51.198;11.966;2023-02-21T03:41:52;11.90;;;8.70;;
23388;SDS011;11867;51.198;11.966;2023-02-21T03:42:55;14.10;;;9.55;;
23388;SDS011;11867;51.198;11.966;2023-02-21T03:43:58;14.48;;;9.70;;
23388;SDS011;11867;51.198;11.966;2023-02-21T03:45:00;14.98;;;9.05;;
23388;SDS011;11867;51.198;11.966;2023-02-21T03:46:02;13.63;;;9.30;;
23388;SDS011;11867;51.198;11.966;2023-02-21T03:47:04;15.10;;;9.88;;
23388;SDS011;11867;51.198;11.966;2023-02-21T03:48:06;14.25;;;9.18;;
23388;SDS011;11867;51.198;11.966;2023-02-21T03:49:08;12.55;;;9.32;;
23388;SDS011;11867;51.198;11.966;2023-02-21T03:50:10;15.32;;;9.90;;
23388;SDS011;11867;51.198;11.966;2023-02-21T03:51:13;14.65;;;9.48;;
23388;SDS011;11867;51.198;11.966;2023-02-21T03:52:16;15.02;;;10.00;;
23388;SDS011;11867;51.198;11.966;2023-02-21T03:53:18;15.30;;;9.98;;
23388;SDS011;11867;51.198;11.966;2023-02-21T03:54:20;13.52;;;9.32;;
23388;SDS011;11867;51.198;11.966;2023-02-21T03:55:22;14.25;;;9.93;;
23388;SDS011;11867;51.198;11.966;2023-02-21T03:56:24;14.45;;;9.63;;
23388;SDS011;11867;51.198;11.966;2023-02-21T03:57:41;15.80;;;10.13;;
23388;SDS011;11867;51.198;11.966;2023-02-21T03:58:43;13.77;;;9.95;;
23388;SDS011;11867;51.198;11.966;2023-02-21T03:59:45;18.95;;;10.20;;
23388;SDS011;11867;51.198;11.966;2023-02-21T04:00:47;14.30;;;9.60;;
23388;SDS011;11867;51.198;11.966;2023-02-21T04:01:50;14.52;;;9.95;;
23388;SDS011;11867;51.198;11.966;2023-02-21T04:02:51;16.65;;;9.93;;
23388;SDS011;11867;51.198;11.966;2023-02-21T04:03:54;14.63;;;9.90;;
23388;SDS011;11867;51.198;11.966;2023-02-21T04:04:55;15.10;;;10.05;;
23388;SDS011;11867;51.198;11.966;2023-02-21T04:05:58;16.90;;;10.65;;
23388;SDS011;11867;51.198;11.966;2023-02-21T04:06:59;15.15;;;10.27;;
23388;SDS011;11867;51.198;11.966;2023-02-21T04:08:04;15.70;;;10.70;;
23388;SDS011;11867;51.198;11.966;2023-02-21T04:09:06;13.50;;;9.77;;
23388;SDS011;11867;51.198;11.966;2023-02-21T04:10:08;16.73;;;10.50;;
23388;SDS011;11867;51.198;11.966;2023-02-21T04:11:10;15.77;;;10.52;;
23388;SDS011;11867;51.198;11.966;2023-02-21T04:12:13;18.30;;;11.52;;
23388;SDS011;11867;51.198;11.966;2023-02-21T04:13:15;15.55;;;10.85;;
23388;SDS011;11867;51.198;11.966;2023-02-21T04:14:19;15.60;;;10.70;;
23388;SDS011;11867;51.198;11.966;2023-02-21T04:15:21;16.50;;;11.18;;
23388;SDS011;11867;51.198;11.966;2023-02-21T04:16:24;17.27;;;11.63;;
23388;SDS011;11867;51.198;11.966;2023-02-21T04:17:25;15.32;;;10.73;;
23388;SDS011;11867;51.198;11.966;2023-02-21T04:18:28;14.15;;;10.63;;
23388;SDS011;11867;51.198;11.966;2023-02-21T04:19:30;15.93;;;11.35;;
23388;SDS011;11867;51.198;11.966;2023-02-21T04:20:32;18.27;;;11.00;;
23388;SDS011;11867;51.198;11.966;2023-02-21T04:21:34;17.25;;;11.68;;
23388;SDS011;11867;51.198;11.966;2023-02-21T04:22:36;17.63;;;10.55;;
23388;SDS011;11867;51.198;11.966;2023-02-21T04:23:39;16.83;;;10.98;;
23388;SDS011;11867;51.198;11.966;2023-02-21T04:24:42;15.85;;;10.90;;
23388;SDS011;11867;51.198;11.966;2023-02-21T04:25:43;18.27;;;11.15;;
23388;SDS011;11867;51.198;11.966;2023-02-21T04:26:46;17.83;;;10.52;;
23388;SDS011;11867;51.198;11.966;2023-02-21T04:27:47;19.35;;;11.93;;
23388;SDS011;11867;51.198;11.966;2023-02-21T04:28:50;18.10;;;11.90;;
23388;SDS011;11867;51.198;11.966;2023-02-21T04:29:52;16.85;;;11.50;;
23388;SDS011;11867;51.198;11.966;2023-02-21T04:30:54;18.65;;;12.18;;
23388;SDS011;11867;51.198;11.966;2023-02-21T04:31:56;17.02;;;11.40;;
23388;SDS011;11867;51.198;11.966;2023-02-21T04:32:58;19.20;;;12.00;;
23388;SDS011;11867;51.198;11.966;2023-02-21T04:34:00;18.25;;;11.77;;
23388;SDS011;11867;51.198;11.966;2023-02-21T04:35:12;21.98;;;12.45;;
23388;SDS011;11867;51.198;11.966;2023-02-21T04:36:14;19.17;;;11.40;;
23388;SDS011;11867;51.198;11.966;2023-02-21T04:37:16;16.92;;;11.35;;
23388;SDS011;11867;51.198;11.966;2023-02-21T04:38:18;16.35;;;11.15;;
23388;SDS011;11867;51.198;11.966;2023-02-21T04:39:22;17.75;;;11.52;;
23388;SDS011;11867;51.198;11.966;2023-02-21T04:40:23;17.88;;;12.35;;
23388;SDS011;11867;51.198;11.966;2023-02-21T04:41:25;18.02;;;11.45;;
23388;SDS011;11867;51.198;11.966;2023-02-21T04:42:27;18.85;;;11.65;;
23388;SDS011;11867;51.198;11.966;2023-02-21T04:43:29;16.27;;;11.23;;
23388;SDS011;11867;51.198;11.966;2023-02-21T04:44:31;17.13;;;11.70;;
23388;SDS011;11867;51.198;11.966;2023-02-21T04:45:34;18.63;;;12.05;;
23388;SDS011;11867;51.198;11.966;2023-02-21T04:46:35;19.63;;;11.70;;
23388;SDS011;11867;51.198;11.966;2023-02-21T04:47:38;17.20;;;11.65;;
23388;SDS011;11867;51.198;11.966;2023-02-21T04:48:39;16.33;;;11.80;;
23388;SDS011;11867;51.198;11.966;2023-02-21T04:49:42;18.10;;;11.70;;
23388;SDS011;11867;51.198;11.966;2023-02-21T04:50:43;16.98;;;10.90;;
23388;SDS011;11867;51.198;11.966;2023-02-21T04:51:46;16.27;;;10.95;;
23388;SDS011;11867;51.198;11.966;2023-02-21T04:52:48;18.17;;;11.65;;
23388;SDS011;11867;51.198;11.966;2023-02-21T04:53:50;17.98;;;11.73;;
23388;SDS011;11867;51.198;11.966;2023-02-21T04:54:54;17.75;;;11.10;;
23388;SDS011;11867;51.198;11.966;2023-02-21T04:55:57;17.40;;;11.63;;
23388;SDS011;11867;51.198;11.966;2023-02-21T04:56:58;16.15;;;11.07;;
23388;SDS011;11867;51.198;11.966;2023-02-21T04:58:01;16.35;;;11.80;;
23388;SDS011;11867;51.198;11.966;2023-02-21T04:59:02;17.33;;;12.10;;
23388;SDS011;11867;51.198;11.966;2023-02-21T05:00:05;15.90;;;11.38;;
23388;SDS011;11867;51.198;11.966;2023-02-21T05:01:09;17.10;;;11.50;;
23388;SDS011;11867;51.198;11.966;2023-02-21T05:02:12;15.93;;;11.70;;
23388;SDS011;11867;51.198;11.966;2023-02-21T05:03:14;18.67;;;12.23;;
23388;SDS011;11867;51.198;11.966;2023-02-21T05:04:16;18.33;;;11.77;;
23388;SDS011;11867;51.198;11.966;2023-02-21T05:05:18;19.38;;;12.02;;
23388;SDS011;11867;51.198;11.966;2023-02-21T05:06:21;16.63;;;11.55;;
23388;SDS011;11867;51.198;11.966;2023-02-21T05:07:24;18.58;;;12.20;;
23388;SDS011;11867;51.198;11.966;2023-02-21T05:08:26;20.42;;;12.30;;
23388;SDS011;11867;51.198;11.966;2023-02-21T05:09:29;18.00;;;12.00;;
23388;SDS011;11867;51.198;11.966;2023-02-21T05:10:32;17.58;;;11.30;;
23388;SDS011;11867;51.198;11.966;2023-02-21T05:11:45;20.10;;;12.15;;
23388;SDS011;11867;51.198;11.966;2023-02-21T05:12:48;17.13;;;11.55;;
23388;SDS011;11867;51.198;11.966;2023-02-21T05:13:50;17.85;;;11.55;;
23388;SDS011;11867;51.198;11.966;2023-02-21T05:14:52;19.98;;;12.60;;
23388;SDS011;11867;51.198;11.966;2023-02-21T05:15:55;17.58;;;11.63;;
23388;SDS011;11867;51.198;11.966;2023-02-21T05:16:56;17.05;;;11.85;;
23388;SDS011;11867;51.198;11.966;2023-02-21T05:17:59;17.38;;;12.27;;
23388;SDS011;11867;51.198;11.966;2023-02-21T05:19:01;19.50;;;12.18;;
23388;SDS011;11867;51.198;11.966;2023-02-21T05:20:03;16.48;;;12.32;;
23388;SDS011;11867;51.198;11.966;2023-02-21T05:21:12;17.75;;;11.98;;
23388;SDS011;11867;51.198;11.966;2023-02-21T05:22:16;14.65;;;10.50;;
23388;SDS011;11867;51.198;11.966;2023-02-21T05:23:20;19.33;;;11.82;;
23388;SDS011;11867;51.198;11.966;2023-02-21T05:24:34;18.50;;;10.90;;
23388;SDS011;11867;51.198;11.966;2023-02-21T05:25:43;17.15;;;11.23;;
23388;SDS011;11867;51.198;11.966;2023-02-21T05:26:46;18.02;;;11.65;;
23388;SDS011;11867;51.198;11.966;2023-02-21T05:27:48;17.35;;;12.00;;
23388;SDS011;11867;51.198;11.966;2023-02-21T05:28:52;21.77;;;12.30;;
23388;SDS011;11867;51.198;11.966;2023-02-21T05:29:53;16.55;;;11.43;;
23388;SDS011;11867;51.198;11.966;2023-02-21T05:30:56;18.50;;;12.05;;
23388;SDS011;11867;51.198;11.966;2023-02-21T05:32:01;20.13;;;11.40;;
23388;SDS011;11867;51.198;11.966;2023-02-21T05:33:03;21.30;;;12.30;;
23388;SDS011;11867;51.198;11.966;2023-02-21T05:34:05;15.75;;;10.82;;
23388;SDS011;11867;51.198;11.966;2023-02-21T05:35:08;18.85;;;12.32;;
23388;SDS011;11867;51.198;11.966;2023-02-21T05:36:10;18.88;;;11.93;;
23388;SDS011;11867;51.198;11.966;2023-02-21T05:37:13;22.00;;;12.10;;
23388;SDS011;11867;51.198;11.966;2023-02-21T05:38:15;18.63;;;12.23;;
23388;SDS011;11867;51.198;11.966;2023-02-21T05:39:18;17.08;;;11.35;;
23388;SDS011;11867;51.198;11.966;2023-02-21T05:40:19;18.83;;;11.85;;
23388;SDS011;11867;51.198;11.966;2023-02-21T05:41:23;15.70;;;10.93;;
23388;SDS011;11867;51.198;11.966;2023-02-21T05:42:25;16.40;;;11.38;;
23388;SDS011;11867;51.198;11.966;2023-02-21T05:43:28;19.42;;;12.20;;
23388;SDS011;11867;51.198;11.966;2023-02-21T05:44:33;18.50;;;12.25;;
23388;SDS011;11867;51.198;11.966;2023-02-21T05:45:36;20.70;;;11.82;;
23388;SDS011;11867;51.198;11.966;2023-02-21T05:46:40;17.58;;;11.85;;
23388;SDS011;11867;51.198;11.966;2023-02-21T05:47:42;19.45;;;11.77;;
23388;SDS011;11867;51.198;11.966;2023-02-21T05:48:44;20.92;;;12.02;;
23388;SDS011;11867;51.198;11.966;2023-02-21T05:49:46;17.33;;;11.85;;
23388;SDS011;11867;51.198;11.966;2023-02-21T05:50:49;18.65;;;11.77;;
23388;SDS011;11867;51.198;11.966;2023-02-21T05:51:50;17.88;;;11.32;;
23388;SDS011;11867;51.198;11.966;2023-02-21T05:52:53;14.68;;;10.90;;
23388;SDS011;11867;51.198;11.966;2023-02-21T05:53:54;16.15;;;11.95;;
23388;SDS011;11867;51.198;11.966;2023-02-21T05:54:57;18.17;;;11.43;;
23388;SDS011;11867;51.198;11.966;2023-02-21T05:55:59;16.80;;;11.88;;
23388;SDS011;11867;51.198;11.966;2023-02-21T05:57:02;19.92;;;12.15;;
23388;SDS011;11867;51.198;11.966;2023-02-21T05:58:05;18.88;;;12.07;;
23388;SDS011;11867;51.198;11.966;2023-02-21T05:59:07;16.67;;;11.48;;
23388;SDS011;11867;51.198;11.966;2023-02-21T06:00:13;17.08;;;11.55;;
23388;SDS011;11867;51.198;11.966;2023-02-21T06:01:16;16.00;;;11.38;;
23388;SDS011;11867;51.198;11.966;2023-02-21T06:02:19;16.42;;;10.77;;
23388;SDS011;11867;51.198;11.966;2023-02-21T06:03:20;19.38;;;11.50;;
23388;SDS011;11867;51.198;11.966;2023-02-21T06:04:23;20.90;;;11.98;;
23388;SDS011;11867;51.198;11.966;2023-02-21T06:05:25;16.67;;;11.32;;
23388;SDS011;11867;51.198;11.966;2023-02-21T06:06:28;17.40;;;12.18;;
23388;SDS011;11867;51.198;11.966;2023-02-21T06:07:29;18.13;;;11.82;;
23388;SDS011;11867;51.198;11.966;2023-02-21T06:08:32;15.88;;;11.52;;
23388;SDS011;11867;51.198;11.966;2023-02-21T06:09:33;17.45;;;11.73;;
23388;SDS011;11867;51.198;11.966;2023-02-21T06:10:36;16.73;;;11.50;;
23388;SDS011;11867;51.198;11.966;2023-02-21T06:11:38;16.65;;;11.25;;
23388;SDS011;11867;51.198;11.966;2023-02-21T06:12:42;17.98;;;12.20;;
23388;SDS011;11867;51.198;11.966;2023-02-21T06:13:44;17.50;;;11.43;;
23388;SDS011;11867;51.198;11.966;2023-02-21T06:14:47;17.95;;;11.65;;
23388;SDS011;11867;51.198;11.966;2023-02-21T06:15:48;17.15;;;11.60;;
23388;SDS011;11867;51.198;11.966;2023-02-21T06:16:51;15.18;;;11.93;;
23388;SDS011;11867;51.198;11.966;2023-02-21T06:17:53;17.63;;;12.25;;
23388;SDS011;11867;51.198;11.966;2023-02-21T06:18:56;16.95;;;11.60;;
23388;SDS011;11867;51.198;11.966;2023-02-21T06:19:58;18.83;;;12.02;;
23388;SDS011;11867;51.198;11.966;2023-02-21T06:21:00;18.35;;;11.40;;
23388;SDS011;11867;51.198;11.966;2023-02-21T06:22:02;17.52;;;11.25;;
23388;SDS011;11867;51.198;11.966;2023-02-21T06:23:04;17.35;;;11.23;;
23388;SDS011;11867;51.198;11.966;2023-02-21T06:24:07;19.95;;;11.55;;
23388;SDS011;11867;51.198;11.966;2023-02-21T06:25:10;16.38;;;11.88;;
23388;SDS011;11867;51.198;11.966;2023-02-21T06:26:13;16.45;;;11.13;;
23388;SDS011;11867;51.198;11.966;2023-02-21T06:27:15;15.35;;;11.00;;
23388;SDS011;11867;51.198;11.966;2023-02-21T06:28:19;18.10;;;11.68;;
23388;SDS011;11867;51.198;11.966;2023-02-21T06:29:21;20.05;;;11.68;;
23388;SDS011;11867;51.198;11.966;2023-02-21T06:30:23;17.10;;;12.18;;
23388;SDS011;11867;51.198;11.966;2023-02-21T06:31:25;16.70;;;12.07;;
23388;SDS011;11867;51.198;11.966;2023-02-21T06:32:28;18.05;;;11.85;;
23388;SDS011;11867;51.198;11.966;2023-02-21T06:33:30;16.92;;;11.93;;
23388;SDS011;11867;51.198;11.966;2023-02-21T06:34:35;18.15;;;12.65;;
23388;SDS011;11867;51.198;11.966;2023-02-21T06:35:37;18.77;;;12.13;;
23388;SDS011;11867;51.198;11.966;2023-02-21T06:36:39;17.35;;;11.45;;
23388;SDS011;11867;51.198;11.966;2023-02-21T06:37:41;17.08;;;11.73;;
23388;SDS011;11867;51.198;11.966;2023-02-21T06:38:44;17.35;;;12.13;;
23388;SDS011;11867;51.198;11.966;2023-02-21T06:39:47;17.20;;;11.38;;
23388;SDS011;11867;51.198;11.966;2023-02-21T06:40:49;17.35;;;11.45;;
23388;SDS011;11867;51.198;11.966;2023-02-21T06:41:51;17.80;;;11.80;;
23388;SDS011;11867;51.198;11.966;2023-02-21T06:42:54;16.92;;;11.80;;
23388;SDS011;11867;51.198;11.966;2023-02-21T06:43:57;17.02;;;11.63;;
23388;SDS011;11867;51.198;11.966;2023-02-21T06:45:00;16.92;;;11.23;;
23388;SDS011;11867;51.198;11.966;2023-02-21T06:46:02;18.52;;;11.93;;
23388;SDS011;11867;51.198;11.966;2023-02-21T06:47:05;17.92;;;11.77;;
23388;SDS011;11867;51.198;11.966;2023-02-21T06:48:07;20.23;;;12.20;;
23388;SDS011;11867;51.198;11.966;2023-02-21T06:49:09;18.45;;;10.75;;
23388;SDS011;11867;51.198;11.966;2023-02-21T06:50:11;19.10;;;11.65;;
23388;SDS011;11867;51.198;11.966;2023-02-21T06:51:14;15.73;;;11.43;;
23388;SDS011;11867;51.198;11.966;2023-02-21T06:52:16;15.35;;;10.68;;
23388;SDS011;11867;51.198;11.966;2023-02-21T06:53:18;18.13;;;11.65;;
23388;SDS011;11867;51.198;11.966;2023-02-21T06:54:20;19.08;;;11.48;;